Time;durP1;ratioP1;P1;durP2;ratioP2;P2;SDS_P1;SDS_P2;PMS_P1;PMS_P2;Temp;Humidity;BMP_temperature;BMP_pressure;BME280_temperature;BME280_humidity;BME280_pressure;Samples;Min_cycle;Max_cycle;Signal;HPM_P1;HPM_P2
2022/04/11 06:56:35;;;;;;;;;5.25;4.25;;;;;10.28;45.62;100456.78;5042000;23;46485;-79
2022/04/11 06:59:00;;;;;;;;;6.25;6.00;;;;;10.25;45.46;100445.69;4769675;29;46198;-80
2022/04/11 07:01:26;;;;;;;;;6.00;5.50;;;;;10.33;45.59;100448.56;4765295;29;45648;-80
2022/04/11 07:03:52;;;;;;;;;7.25;6.00;;;;;10.41;45.49;100459.34;4746136;29;48653;-80
2022/04/11 07:06:17;;;;;;;;;6.25;5.75;;;;;10.39;45.19;100453.38;4781113;29;46075;-79
2022/04/11 07:08:43;;;;;;;;;5.00;5.00;;;;;10.05;45.31;100387.72;4781807;29;45816;-79
2022/04/11 07:11:08;;;;;;;;;4.25;3.25;;;;;10.49;45.32;100449.13;4782719;29;45844;-79
2022/04/11 07:13:34;;;;;;;;;7.00;7.00;;;;;10.52;45.13;100448.94;4781942;29;45791;-81
2022/04/11 07:16:00;;;;;;;;;4.50;4.00;;;;;10.55;45.37;100440.81;4780821;29;47174;-79
2022/04/11 07:18:27;;;;;;;;;6.00;4.00;;;;;10.52;45.26;100431.44;4782672;29;45950;-81
2022/04/11 07:20:53;;;;;;;;;6.75;5.00;;;;;10.57;45.48;100428.47;4783678;29;45726;-79
2022/04/11 07:23:19;;;;;;;;;0.50;0.00;;;;;10.49;45.15;100402.81;4781759;29;45963;-79
2022/04/11 07:25:44;;;;;;;;;4.00;4.00;;;;;10.65;45.06;100423.47;4779310;29;46191;-80
2022/04/11 07:28:10;;;;;;;;;7.00;6.25;;;;;10.69;45.11;100424.91;4781898;29;45947;-80
2022/04/11 07:30:35;;;;;;;;;7.75;7.00;;;;;10.42;45.21;100378.03;4780805;29;45639;-79
2022/04/11 07:33:01;;;;;;;;;6.75;4.00;;;;;10.66;45.19;100408.59;4780339;29;46672;-80
2022/04/11 07:35:26;;;;;;;;;6.00;4.00;;;;;10.62;45.09;100400.13;4779469;29;46244;-79
2022/04/11 07:37:52;;;;;;;;;7.25;6.00;;;;;10.74;45.13;100414.13;4778598;29;45695;-78
2022/04/11 07:40:17;;;;;;;;;6.00;4.50;;;;;10.78;45.10;100415.53;4766836;29;46248;-79
2022/04/11 07:42:42;;;;;;;;;4.00;3.50;;;;;10.89;45.01;100426.06;4785721;29;46660;-80
2022/04/11 07:45:09;;;;;;;;;5.00;5.00;;;;;10.84;45.05;100415.94;4784760;29;46037;-76
2022/04/11 07:47:35;;;;;;;;;4.00;4.00;;;;;10.97;45.52;100435.94;4782928;29;45859;-76
2022/04/11 07:50:00;;;;;;;;;6.75;6.25;;;;;10.89;45.47;100410.34;4785023;29;45693;-81
2022/04/11 07:52:26;;;;;;;;;9.50;9.25;;;;;10.81;45.37;100383.84;4770271;29;46377;-79
2022/04/11 07:54:52;;;;;;;;;7.00;7.00;;;;;11.11;45.23;100418.25;4786209;29;45939;-79
2022/04/11 07:57:18;;;;;;;;;8.25;8.00;;;;;11.14;45.12;100415.38;4796707;29;45773;-79
2022/04/11 07:59:43;;;;;;;;;7.00;7.00;;;;;10.96;45.04;100374.03;4803713;29;45729;-81
2022/04/11 08:02:08;;;;;;;;;5.25;3.75;;;;;11.17;45.23;100401.22;4805364;29;45713;-77
2022/04/11 08:04:34;;;;;;;;;7.50;6.75;;;;;11.24;45.46;100403.22;4804568;29;46084;-79
2022/04/11 08:07:01;;;;;;;;;5.50;4.50;;;;;11.26;45.24;100392.63;4805129;29;45762;-80
2022/04/11 08:09:26;;;;;;;;;6.00;3.50;;;;;11.30;45.03;100387.00;4808322;29;45668;-81
2022/04/11 08:11:52;;;;;;;;;4.00;4.00;;;;;11.45;44.94;100394.63;4804192;29;46447;-80
2022/04/11 08:14:17;;;;;;;;;7.00;4.50;;;;;11.54;45.18;100401.81;4786905;29;45556;-79
2022/04/11 08:16:43;;;;;;;;;6.25;4.25;;;;;11.61;44.98;100392.47;4802679;29;45910;-82
2022/04/11 08:19:08;;;;;;;;;6.75;5.25;;;;;11.63;44.88;100390.56;4803437;29;45665;-82
2022/04/11 08:21:34;;;;;;;;;4.50;3.75;;;;;11.69;44.89;100390.94;4797441;29;46938;-84
2022/04/11 08:23:59;;;;;;;;;4.50;4.00;;;;;11.73;44.81;100397.63;4803817;29;45686;-82
2022/04/11 08:26:25;;;;;;;;;4.00;4.00;;;;;11.73;44.79;100397.63;4801469;29;45827;-79
2022/04/11 08:28:50;;;;;;;;;4.00;4.00;;;;;11.83;44.55;100400.34;4802472;29;45833;-81
2022/04/11 08:31:15;;;;;;;;;6.00;5.50;;;;;11.73;44.54;100370.56;4800536;29;45762;-80
2022/04/11 08:33:41;;;;;;;;;5.00;5.00;;;;;11.94;44.75;100389.84;4802561;29;45849;-78
2022/04/11 08:36:06;;;;;;;;;4.25;4.00;;;;;11.98;44.72;100382.56;4802931;29;46162;-79
2022/04/11 08:38:32;;;;;;;;;6.50;4.75;;;;;12.07;44.77;100389.69;4803553;29;45886;-77
2022/04/11 08:41:02;;;;;;;;;7.00;6.00;;;;;12.10;44.76;100381.56;4803155;29;46382;-78
2022/04/11 08:43:27;;;;;;;;;4.00;4.00;;;;;12.15;44.47;100387.25;4803063;29;46028;-78
2022/04/11 08:45:54;;;;;;;;;4.00;4.00;;;;;12.24;44.03;100386.53;4802752;29;45659;-79
2022/04/11 08:48:22;;;;;;;;;12.25;9.25;;;;;12.29;44.05;100383.53;4801386;29;45942;-80
2022/04/11 08:50:48;;;;;;;;;5.75;4.75;;;;;12.24;44.17;100356.81;4801639;29;48699;-79
2022/04/11 08:53:17;;;;;;;;;5.00;5.00;;;;;12.33;44.06;100343.75;4784934;29;46607;-78
2022/04/11 08:55:42;;;;;;;;;5.00;5.00;;;;;12.44;43.82;100354.19;4800948;29;46185;-78
2022/04/11 08:58:08;;;;;;;;;5.00;5.00;;;;;12.52;43.83;100358.84;4802909;29;45824;-78
2022/04/11 09:00:35;;;;;;;;;5.00;5.00;;;;;12.58;43.83;100350.41;4785474;29;46284;-79
2022/04/11 09:03:00;;;;;;;;;5.00;4.00;;;;;12.64;43.70;100344.66;4800558;29;45801;-78
2022/04/11 09:05:27;;;;;;;;;4.00;4.00;;;;;12.69;43.63;100339.84;4800130;29;45781;-79
2022/04/11 09:07:55;;;;;;;;;5.00;4.00;;;;;12.76;44.00;100330.47;4802860;29;45757;-79
2022/04/11 09:10:21;;;;;;;;;5.75;4.25;;;;;12.82;43.83;100331.75;4802779;29;45808;-79
2022/04/11 09:12:49;;;;;;;;;4.75;4.75;;;;;12.86;43.50;100338.41;4802680;29;46305;-77
2022/04/11 09:15:15;;;;;;;;;5.00;4.00;;;;;12.86;43.26;100327.91;4801958;29;46303;-81
2022/04/11 09:17:43;;;;;;;;;6.50;5.25;;;;;12.99;43.27;100339.88;4803130;29;45711;-77
2022/04/11 09:20:17;;;;;;;;;6.00;6.00;;;;;13.07;43.08;100341.84;4802822;29;45815;-80
2022/04/11 09:22:43;;;;;;;;;4.75;3.00;;;;;13.07;43.25;100331.31;4800858;29;46928;-77
2022/04/11 09:25:08;;;;;;;;;3.50;3.00;;;;;13.19;43.12;100338.19;4802504;29;45657;-78
2022/04/11 09:27:34;;;;;;;;;3.50;3.00;;;;;13.24;43.06;100329.91;4802599;29;45888;-80
2022/04/11 09:30:00;;;;;;;;;5.00;5.00;;;;;13.33;42.77;100324.66;4802972;29;47481;-76
2022/04/11 09:32:25;;;;;;;;;5.00;4.00;;;;;13.17;42.87;100287.50;4783409;29;47285;-79
2022/04/11 09:34:54;;;;;;;;;3.00;3.00;;;;;13.37;42.50;100304.19;4802319;29;45745;-76
2022/04/11 09:37:23;;;;;;;;;4.00;2.50;;;;;13.52;42.51;100320.44;4801525;29;45698;-79
2022/04/11 09:39:57;;;;;;;;;5.00;4.50;;;;;13.58;42.75;100320.75;4800978;29;45729;-76
2022/04/11 09:42:30;;;;;;;;;2.50;2.50;;;;;13.57;42.84;100307.69;4800348;29;45760;-78
2022/04/11 09:45:00;;;;;;;;;3.50;3.50;;;;;13.53;42.82;100287.88;4801325;29;45785;-78
2022/04/11 09:47:26;;;;;;;;;4.50;3.25;;;;;13.81;42.01;100322.19;4802191;29;45757;-78
2022/04/11 09:49:51;;;;;;;;;3.75;3.00;;;;;13.68;42.26;100276.81;4784397;29;46419;-79
2022/04/11 09:52:17;;;;;;;;;2.50;2.50;;;;;13.98;41.84;100309.31;4797982;29;45916;-77
2022/04/11 09:54:45;;;;;;;;;3.50;3.50;;;;;14.06;41.71;100312.06;4800404;29;46126;-78
2022/04/11 09:57:12;;;;;;;;;4.75;4.50;;;;;14.06;41.51;100294.44;4801533;29;46091;-77
2022/04/11 09:59:41;;;;;;;;;3.00;3.00;;;;;14.18;41.50;100301.25;4798972;29;46473;-78
2022/04/11 10:02:10;;;;;;;;;3.00;3.00;;;;;14.28;41.37;100311.78;4801469;29;46165;-80
2022/04/11 10:04:36;;;;;;;;;3.75;3.00;;;;;14.34;40.92;100305.13;4802645;29;45680;-80
2022/04/11 10:07:02;;;;;;;;;3.00;2.75;;;;;14.41;40.80;100306.25;4801744;29;45791;-78
2022/04/11 10:09:27;;;;;;;;;3.00;3.00;;;;;14.47;40.56;100297.75;4803544;29;47519;-78
2022/04/11 10:11:54;;;;;;;;;2.50;2.50;;;;;14.50;40.35;100295.69;4783880;29;47246;-76
2022/04/11 10:14:28;;;;;;;;;3.00;3.00;;;;;14.62;40.61;100299.84;4801457;29;45972;-76
2022/04/11 10:17:02;;;;;;;;;2.75;2.75;;;;;14.71;40.22;100300.78;4777196;29;46275;-78
2022/04/11 10:19:30;;;;;;;;;5.00;4.50;;;;;14.73;40.42;100290.09;4801996;29;47208;-77
2022/04/11 10:22:05;;;;;;;;;9.00;5.00;;;;;14.84;40.11;100290.75;4801751;29;47387;-74
2022/04/11 10:25:05;;;;;;;;;4.50;4.25;;;;;14.97;40.30;100298.31;4799221;29;45849;-76
2022/04/11 10:27:32;;;;;;;;;4.00;3.50;;;;;15.06;40.39;100300.13;4781198;29;45782;-75
2022/04/11 10:29:59;;;;;;;;;3.00;2.00;;;;;15.11;40.00;100287.31;4800187;29;46872;-76
2022/04/11 10:32:27;;;;;;;;;4.00;3.00;;;;;15.19;39.99;100284.75;4800957;29;47482;-78
2022/04/11 10:34:56;;;;;;;;;4.25;3.50;;;;;15.25;39.69;100275.44;4766825;29;45916;-77
2022/04/11 10:37:51;;;;;;;;;3.75;3.75;;;;;15.29;39.83;100271.50;4799025;29;45813;-75
2022/04/11 10:40:16;;;;;;;;;2.00;2.00;;;;;15.36;39.56;100272.59;4710249;30;46788;-76
2022/04/11 10:43:00;;;;;;;;;4.50;3.75;;;;;15.43;39.39;100263.09;4701698;30;45860;-79
2022/04/11 10:45:34;;;;;;;;;4.50;2.50;;;;;15.45;39.80;100258.47;4703258;30;46209;-77
2022/04/11 10:47:59;;;;;;;;;4.50;4.00;;;;;15.38;39.56;100236.31;4702682;30;45766;-77
2022/04/11 10:50:27;;;;;;;;;5.75;4.50;;;;;15.55;39.61;100256.63;4696367;30;47804;-79
2022/04/11 10:52:55;;;;;;;;;4.00;3.75;;;;;15.59;39.69;100251.91;4700577;30;46115;-76
2022/04/11 10:55:23;;;;;;;;;5.00;3.50;;;;;15.45;39.60;100232.09;4701095;30;46267;-75
2022/04/11 10:57:56;;;;;;;;;3.75;3.00;;;;;15.58;39.41;100244.97;4722988;30;45941;-77
2022/04/11 11:00:22;;;;;;;;;3.25;3.00;;;;;15.67;39.70;100246.69;4691485;30;47813;-76
2022/04/11 11:02:48;;;;;;;;;3.00;3.00;;;;;15.69;39.37;100231.53;4706028;30;47253;-78
2022/04/11 11:05:35;;;;;;;;;4.00;4.00;;;;;15.71;39.70;100227.75;4699555;30;46058;-80
2022/04/11 11:08:09;;;;;;;;;5.25;5.00;;;;;15.75;39.64;100228.28;4709821;30;45965;-79
2022/04/11 11:10:56;;;;;;;;;3.50;2.25;;;;;15.80;39.90;100224.22;4709721;30;45787;-78
2022/04/11 11:13:34;;;;;;;;;3.50;3.50;;;;;15.86;40.02;100234.19;4707574;30;45902;-77
2022/04/11 11:16:20;;;;;;;;;4.25;4.25;;;;;15.91;39.89;100237.19;4711896;30;45759;-76
2022/04/11 11:18:49;;;;;;;;;4.00;3.00;;;;;16.00;40.05;100240.72;4804744;29;45595;-77
2022/04/11 11:21:15;;;;;;;;;3.00;3.00;;;;;16.08;39.93;100238.16;4794912;29;46314;-77
2022/04/11 11:23:41;;;;;;;;;5.00;5.00;;;;;16.11;39.87;100229.09;4804510;29;47596;-77
2022/04/11 11:26:08;;;;;;;;;6.00;4.00;;;;;16.22;39.50;100244.69;4804331;29;46191;-76
2022/04/11 11:28:33;;;;;;;;;4.00;3.25;;;;;16.28;39.61;100246.72;4804814;29;45672;-78
2022/04/11 11:30:59;;;;;;;;;3.00;3.00;;;;;16.29;39.56;100248.38;4803498;29;46319;-77
2022/04/11 11:33:27;;;;;;;;;4.00;3.75;;;;;16.37;39.47;100246.63;4804636;29;46432;-76
2022/04/11 11:35:54;;;;;;;;;4.00;3.50;;;;;16.40;39.73;100237.56;4803625;29;45981;-76
2022/04/11 11:38:27;;;;;;;;;4.00;4.00;;;;;16.44;39.24;100244.19;4803020;29;45898;-75
2022/04/11 11:40:54;;;;;;;;;4.00;4.00;;;;;16.53;39.50;100253.81;4788914;29;47490;-77
2022/04/11 11:43:23;;;;;;;;;4.50;3.25;;;;;16.49;39.53;100231.34;4804376;29;47330;-80
2022/04/11 11:45:49;;;;;;;;;3.50;3.50;;;;;16.52;39.51;100236.28;4803781;29;45657;-79
2022/04/11 11:48:28;;;;;;;;;3.75;3.75;;;;;16.64;39.31;100245.66;4803292;29;46156;-77
2022/04/11 11:50:55;;;;;;;;;4.25;4.00;;;;;16.69;39.26;100239.91;4803236;29;46837;-79
2022/04/11 11:53:22;;;;;;;;;4.25;4.00;;;;;16.72;39.42;100239.59;4804154;29;46191;-79
2022/04/11 11:55:58;;;;;;;;;4.25;4.25;;;;;16.81;39.33;100240.47;4732997;29;1160560;-77
2022/04/11 11:58:37;;;;;;;;;4.00;4.00;;;;;16.76;39.17;100211.84;4800110;29;45801;-82
2022/04/11 12:01:06;;;;;;;;;4.00;4.00;;;;;16.86;39.33;100230.22;4804422;29;45735;-78
2022/04/11 12:06:26;;;;;;;;;4.25;4.00;;;;;17.05;39.48;100227.34;4804870;29;45681;-78
2022/04/11 12:09:02;;;;;;;;;5.00;5.00;;;;;17.12;39.54;100223.06;4801698;29;45855;-78
2022/04/11 12:11:30;;;;;;;;;4.50;3.75;;;;;17.17;39.32;100218.09;4800726;29;46479;-79
2022/04/11 12:14:05;;;;;;;;;4.00;4.00;;;;;17.22;39.44;100215.00;4804766;29;46063;-79
2022/04/11 12:16:34;;;;;;;;;4.25;4.25;;;;;17.15;39.66;100194.47;4804456;29;46146;-78
2022/04/11 12:19:01;;;;;;;;;4.00;4.00;;;;;17.34;39.35;100219.81;4795273;29;46245;-78
2022/04/11 12:21:37;;;;;;;;;4.00;4.00;;;;;17.38;39.83;100210.53;4802930;29;45934;-78
2022/04/11 12:24:05;;;;;;;;;3.00;3.00;;;;;17.44;39.75;100211.72;4804305;29;46662;-79
2022/04/11 12:26:45;;;;;;;;;4.00;4.00;;;;;17.39;39.63;100188.38;4798661;29;45621;-78
2022/04/11 12:29:19;;;;;;;;;5.00;4.50;;;;;17.57;39.19;100204.13;4799259;29;45695;-78
2022/04/11 12:31:58;;;;;;;;;5.00;5.00;;;;;17.60;39.76;100196.69;4785937;29;48631;-77
2022/04/11 12:34:39;;;;;;;;;3.25;3.25;;;;;17.64;39.33;100188.44;4800407;29;46389;-79
2022/04/11 12:37:08;;;;;;;;;5.25;5.00;;;;;17.56;39.15;100176.81;4805023;29;45749;-78
2022/04/11 12:39:50;;;;;;;;;3.00;3.00;;;;;17.73;39.21;100185.63;4799664;29;45644;-77
2022/04/11 12:42:23;;;;;;;;;5.00;4.00;;;;;17.77;38.99;100168.41;4808734;29;46418;-78
2022/04/11 12:44:49;;;;;;;;;5.25;4.00;;;;;17.82;39.15;100170.53;4802282;29;46527;-78
2022/04/11 12:47:15;;;;;;;;;4.75;3.00;;;;;17.69;39.25;100141.91;4802473;29;45822;-78
2022/04/11 12:49:47;;;;;;;;;5.00;4.50;;;;;17.89;39.00;100166.25;4803192;29;45723;-78
2022/04/11 12:52:15;;;;;;;;;4.00;3.00;;;;;18.00;39.25;100176.50;4800465;29;47408;-78
2022/04/11 12:54:40;;;;;;;;;3.50;3.50;;;;;18.06;39.33;100156.44;4789433;29;47087;-78
2022/04/11 12:57:10;;;;;;;;;5.00;4.50;;;;;18.11;39.47;100154.13;4807986;29;46187;-79
2022/04/11 12:59:41;;;;;;;;;4.25;4.00;;;;;18.19;39.57;100152.25;4798432;29;45684;-79
2022/04/11 13:02:06;;;;;;;;;5.50;5.00;;;;;18.26;39.04;100169.16;4807274;29;47581;-79
2022/04/11 13:04:37;;;;;;;;;5.00;5.00;;;;;18.21;38.92;100146.81;4810713;29;45742;-81
2022/04/11 13:07:03;;;;;;;;;4.25;4.00;;;;;18.32;38.76;100162.34;4808091;29;45607;-80
2022/04/11 13:09:29;;;;;;;;;3.50;3.25;;;;;18.49;38.89;100163.97;4809599;29;45506;-76
2022/04/11 13:11:55;;;;;;;;;6.75;4.75;;;;;18.56;38.94;100153.53;4807742;29;46435;-77
2022/04/11 13:14:21;;;;;;;;;5.50;5.00;;;;;18.64;38.32;100143.72;4807963;29;45747;-79
2022/04/11 13:19:31;;;;;;;;;5.00;5.00;;;;;18.85;38.28;100140.47;4806559;29;45816;-79
2022/04/11 13:21:57;;;;;;;;;4.00;4.00;;;;;18.88;37.94;100118.06;4805704;29;45707;-80
2022/04/11 13:24:22;;;;;;;;;4.00;4.00;;;;;19.02;37.84;100136.72;4805874;29;46049;-77
2022/04/11 13:26:48;;;;;;;;;3.00;3.00;;;;;19.00;37.90;100106.84;4803210;29;45787;-77
2022/04/11 13:29:15;;;;;;;;;3.75;3.75;;;;;19.08;37.60;100104.16;4806465;29;45615;-79
2022/04/11 13:31:41;;;;;;;;;4.00;3.00;;;;;19.24;37.19;100116.50;4806366;29;45972;-83
2022/04/11 13:34:06;;;;;;;;;4.50;4.00;;;;;19.27;36.55;100124.94;4808183;29;46075;-81
2022/04/11 13:36:32;;;;;;;;;3.00;2.00;;;;;19.27;36.38;100116.97;4802818;29;45636;-77
2022/04/11 13:38:58;;;;;;;;;2.75;2.25;;;;;19.33;36.15;100117.25;4785926;29;45967;-80
2022/04/11 13:41:24;;;;;;;;;3.00;3.00;;;;;19.41;35.86;100107.41;4806823;29;45696;-80
2022/04/11 13:43:49;;;;;;;;;3.00;3.00;;;;;19.44;35.42;100108.88;4803413;29;46201;-80
2022/04/11 13:46:15;;;;;;;;;2.00;2.00;;;;;19.48;35.42;100094.28;4804868;29;45758;-76
2022/04/11 13:48:41;;;;;;;;;2.75;2.75;;;;;19.54;34.77;100093.56;4803569;29;45770;-83
2022/04/11 13:51:06;;;;;;;;;2.25;2.00;;;;;19.58;35.13;100097.50;4804240;29;46589;-81
2022/04/11 13:53:34;;;;;;;;;2.25;2.25;;;;;19.51;35.06;100072.66;4792435;29;47848;-78
2022/04/11 13:55:59;;;;;;;;;3.50;2.00;;;;;19.62;35.08;100093.47;4801849;29;45971;-80
2022/04/11 13:58:25;;;;;;;;;3.25;2.50;;;;;19.48;35.10;100063.22;4802354;29;45642;-82
2022/04/11 14:00:50;;;;;;;;;2.00;2.00;;;;;19.66;35.01;100086.78;4803687;29;46255;-80
2022/04/11 14:03:16;;;;;;;;;2.00;2.00;;;;;19.64;34.73;100083.50;4802850;29;47247;-79
2022/04/11 14:05:42;;;;;;;;;3.75;2.75;;;;;19.69;35.02;100092.59;4801116;29;45821;-78
2022/04/11 14:08:09;;;;;;;;;1.25;1.25;;;;;19.64;34.82;100079.00;4800148;29;45975;-79
2022/04/11 14:10:36;;;;;;;;;3.00;2.25;;;;;19.60;34.29;100067.06;4795669;29;47067;-80
2022/04/11 14:13:01;;;;;;;;;4.50;3.25;;;;;19.72;34.48;100083.41;4800805;29;46322;-77
2022/04/11 14:15:27;;;;;;;;;2.00;2.00;;;;;19.64;34.54;100068.38;4799764;29;46414;-77
2022/04/11 14:17:52;;;;;;;;;2.50;2.50;;;;;19.74;34.46;100069.94;4801439;29;45704;-78
2022/04/11 14:20:17;;;;;;;;;2.00;2.00;;;;;19.79;34.03;100071.06;4801754;29;45724;-78
2022/04/11 14:22:43;;;;;;;;;3.00;3.00;;;;;19.85;34.07;100070.34;4803096;29;45934;-78
2022/04/11 14:25:09;;;;;;;;;2.00;2.00;;;;;19.88;34.66;100061.97;4802027;29;46081;-77
2022/04/11 14:27:35;;;;;;;;;4.00;3.00;;;;;19.93;34.18;100064.91;4795995;29;46115;-81
2022/04/11 14:30:00;;;;;;;;;5.00;3.00;;;;;19.85;34.13;100046.41;4803147;29;46044;-81
2022/04/11 14:32:26;;;;;;;;;3.00;3.00;;;;;19.98;34.37;100059.88;4802070;29;46789;-79
2022/04/11 14:34:51;;;;;;;;;3.00;2.50;;;;;20.00;33.95;100055.19;4803093;29;45679;-77
2022/04/11 14:37:16;;;;;;;;;2.00;1.25;;;;;19.95;34.00;100048.78;4804128;29;45692;-77
2022/04/11 14:39:42;;;;;;;;;3.00;2.50;;;;;20.04;33.62;100050.34;4768828;29;47398;-80
2022/04/11 14:42:07;;;;;;;;;2.50;2.50;;;;;19.99;34.07;100042.09;4798217;29;47014;-78
2022/04/11 14:44:33;;;;;;;;;1.50;1.50;;;;;20.04;34.15;100047.66;4790155;29;45791;-76
2022/04/11 14:47:00;;;;;;;;;4.00;3.25;;;;;20.04;34.39;100048.50;4798472;29;45807;-80
2022/04/11 14:49:25;;;;;;;;;3.00;2.00;;;;;20.06;34.23;100045.66;4786996;29;47903;-77
2022/04/11 14:51:51;;;;;;;;;3.00;3.00;;;;;20.09;33.92;100035.47;4803404;29;46197;-80
2022/04/11 14:54:16;;;;;;;;;1.50;1.50;;;;;20.13;33.92;100030.63;4803543;29;45711;-77
2022/04/11 14:56:42;;;;;;;;;1.50;1.50;;;;;19.98;34.21;99998.72;4807558;29;45791;-80
2022/04/11 14:59:08;;;;;;;;;3.00;3.00;;;;;20.20;33.71;100033.34;4804999;29;45795;-78
2022/04/11 15:01:33;;;;;;;;;2.50;2.50;;;;;20.31;34.02;100030.22;4803674;29;46597;-79
2022/04/11 15:03:59;;;;;;;;;2.75;2.00;;;;;20.37;34.00;100025.03;4816813;29;45079;-79
2022/04/11 15:06:25;;;;;;;;;2.00;2.00;;;;;20.51;33.80;100026.03;4811815;29;45532;-79
2022/04/11 15:08:50;;;;;;;;;1.25;1.25;;;;;20.52;33.58;100004.50;4813576;29;45538;-81
2022/04/11 15:11:16;;;;;;;;;4.00;3.00;;;;;20.84;33.63;100015.69;4809030;29;46337;-79
2022/04/11 15:13:43;;;;;;;;;3.25;3.00;;;;;21.14;33.51;100017.25;4807684;29;45730;-78
2022/04/11 15:16:08;;;;;;;;;1.75;1.75;;;;;21.87;33.05;100020.44;4808384;29;45807;-77
2022/04/11 15:18:33;;;;;;;;;2.00;2.00;;;;;23.02;31.97;100011.47;4805279;29;46977;-79
2022/04/11 15:21:01;;;;;;;;;1.00;1.00;;;;;24.46;30.61;100001.53;4808595;29;45461;-78
2022/04/11 15:23:28;;;;;;;;;2.25;2.25;;;;;25.90;29.80;100017.59;4813601;29;45669;-79
2022/04/11 15:25:53;;;;;;;;;2.00;2.00;;;;;27.31;28.41;100009.94;4805976;29;45774;-78
2022/04/11 15:28:19;;;;;;;;;2.00;2.00;;;;;28.67;27.34;100013.91;4806578;29;45718;-79
2022/04/11 15:30:45;;;;;;;;;1.75;1.75;;;;;29.81;26.21;100012.59;4801913;29;46271;-79
2022/04/11 15:33:11;;;;;;;;;3.00;3.00;;;;;30.73;25.36;100014.56;4801898;29;45632;-80
2022/04/11 15:35:37;;;;;;;;;1.25;1.25;;;;;31.43;24.62;100008.13;4779476;29;45584;-79
2022/04/11 15:38:02;;;;;;;;;3.00;2.00;;;;;32.27;23.84;100011.63;4802278;29;46573;-81
2022/04/11 15:40:28;;;;;;;;;1.00;1.00;;;;;33.00;23.03;100000.66;4801864;29;45706;-81
2022/04/11 15:42:54;;;;;;;;;0.00;0.00;;;;;33.27;21.81;100009.38;4802426;29;46140;-79
2022/04/11 15:45:22;;;;;;;;;2.00;1.75;;;;;33.39;21.81;100009.09;4802020;29;46129;-79
2022/04/11 15:47:48;;;;;;;;;0.75;0.75;;;;;33.55;21.79;100013.41;4802253;29;47522;-78
2022/04/11 15:50:13;;;;;;;;;1.00;1.00;;;;;33.91;21.41;100006.81;4802307;29;46237;-78
2022/04/11 15:52:39;;;;;;;;;1.00;1.00;;;;;34.43;20.34;100017.25;4794822;29;45829;-77
2022/04/11 15:55:05;;;;;;;;;0.75;0.25;;;;;34.54;20.08;100004.38;4798048;29;45889;-79
2022/04/11 15:57:30;;;;;;;;;1.00;1.00;;;;;34.27;19.48;100007.53;4801781;29;47604;-78
2022/04/11 15:59:56;;;;;;;;;0.00;0.00;;;;;33.74;19.46;100000.88;4799992;29;45636;-81
2022/04/11 16:02:22;;;;;;;;;1.75;1.00;;;;;33.01;19.81;99996.88;4803745;29;45777;-80
2022/04/11 16:04:48;;;;;;;;;2.75;2.00;;;;;32.36;20.69;100001.88;4804073;29;45506;-79
2022/04/11 16:07:13;;;;;;;;;1.00;1.00;;;;;31.83;20.78;100004.91;4804702;29;46685;-77
2022/04/11 16:09:39;;;;;;;;;2.25;1.00;;;;;31.39;21.15;100005.13;4781239;29;46041;-78
2022/04/11 16:12:05;;;;;;;;;2.00;1.00;;;;;31.10;21.25;100007.34;4788501;29;46108;-78
2022/04/11 16:14:30;;;;;;;;;1.00;1.00;;;;;30.89;21.47;100008.22;4804349;29;45755;-79
2022/04/11 16:16:56;;;;;;;;;1.25;1.25;;;;;30.71;21.71;100014.00;4789632;29;47645;-79
2022/04/11 16:19:21;;;;;;;;;0.25;0.00;;;;;30.48;21.74;100009.72;4804437;29;46289;-78
2022/04/11 16:21:47;;;;;;;;;2.00;1.00;;;;;30.26;21.91;100017.00;4804463;29;46125;-78
2022/04/11 16:24:12;;;;;;;;;1.00;1.00;;;;;29.98;22.56;100024.22;4803927;29;45850;-79
2022/04/11 16:26:38;;;;;;;;;3.00;1.50;;;;;29.57;22.02;100020.09;4788196;29;46573;-80
2022/04/11 16:29:04;;;;;;;;;1.25;1.00;;;;;29.19;22.57;100017.31;4800615;29;47346;-78
2022/04/11 16:31:29;;;;;;;;;4.00;2.50;;;;;28.84;23.23;100014.00;4804312;29;46013;-79
2022/04/11 16:33:54;;;;;;;;;1.50;1.50;;;;;28.53;23.58;100012.59;4788263;29;45981;-79
2022/04/11 16:36:20;;;;;;;;;2.00;2.00;;;;;28.20;23.75;100006.03;4803702;29;46448;-78
2022/04/11 16:38:45;;;;;;;;;2.00;2.00;;;;;27.94;24.32;100004.66;4804722;29;46336;-78
2022/04/11 16:41:11;;;;;;;;;1.50;1.50;;;;;27.65;23.85;100004.78;4804250;29;45905;-79
2022/04/11 16:43:36;;;;;;;;;2.75;2.50;;;;;27.36;23.96;100006.53;4798279;29;45768;-81
2022/04/11 16:46:02;;;;;;;;;2.50;2.00;;;;;27.04;24.42;100003.34;4775903;29;46512;-80
2022/04/11 16:48:28;;;;;;;;;3.00;2.25;;;;;26.76;25.32;100005.78;4804184;29;45603;-77
2022/04/11 16:50:54;;;;;;;;;2.00;2.00;;;;;26.45;24.85;99998.78;4787733;29;46229;-79
2022/04/11 16:53:20;;;;;;;;;2.00;2.00;;;;;26.14;25.14;100008.63;4804602;29;46107;-80
2022/04/11 16:55:45;;;;;;;;;3.25;2.00;;;;;25.80;25.54;100004.66;4802889;29;45810;-79
2022/04/11 16:58:12;;;;;;;;;4.00;2.00;;;;;25.57;25.97;99998.31;4803917;29;45754;-78
2022/04/11 17:00:38;;;;;;;;;3.75;3.50;;;;;25.26;26.46;99996.53;4802700;29;45637;-80
2022/04/11 17:03:03;;;;;;;;;2.00;2.00;;;;;24.99;26.72;99994.03;4804291;29;45664;-79
2022/04/11 17:05:29;;;;;;;;;2.00;2.00;;;;;24.74;27.09;99986.97;4787124;29;46754;-78
2022/04/11 17:07:55;;;;;;;;;2.75;2.75;;;;;24.54;27.39;99992.44;4803998;29;45984;-80
2022/04/11 17:10:21;;;;;;;;;2.00;2.00;;;;;24.35;27.92;99990.69;4804017;29;45701;-80
2022/04/11 17:12:47;;;;;;;;;3.00;2.25;;;;;24.18;27.58;99993.84;4803778;29;45580;-75
2022/04/11 17:20:42;;;;;;;;;3.00;2.00;;;;;23.60;28.89;99978.75;4804098;29;45673;-79
2022/04/11 17:23:08;;;;;;;;;3.00;3.00;;;;;23.53;28.91;99989.50;4803015;29;45788;-79
2022/04/11 17:25:33;;;;;;;;;3.25;3.00;;;;;23.40;28.94;99992.13;4801157;29;46194;-79
2022/04/11 17:27:59;;;;;;;;;3.00;2.00;;;;;23.25;29.58;99979.00;4803894;29;45603;-79
2022/04/11 17:30:24;;;;;;;;;2.00;1.75;;;;;23.09;29.47;99981.25;4802955;29;45819;-78
2022/04/11 17:32:50;;;;;;;;;2.00;2.00;;;;;22.96;30.12;99990.91;4799986;29;46268;-79
2022/04/11 17:35:16;;;;;;;;;3.00;3.00;;;;;22.85;30.07;100012.06;4803225;29;47222;-84
2022/04/11 17:37:41;;;;;;;;;4.00;3.50;;;;;22.71;30.18;100008.53;4799090;29;46244;-80
2022/04/11 17:40:07;;;;;;;;;19.75;17.25;;;;;22.50;30.48;99995.31;4798404;29;45782;-78
2022/04/11 17:42:33;;;;;;;;;14.50;9.50;;;;;22.45;30.96;100009.28;4797876;29;45771;-78
2022/04/11 17:44:58;;;;;;;;;4.00;3.25;;;;;22.33;31.63;100005.53;4764644;29;48499;-81
2022/04/11 17:47:27;;;;;;;;;5.75;4.00;;;;;22.13;31.81;99996.63;4784366;29;48185;-80
2022/04/11 17:49:52;;;;;;;;;3.25;3.25;;;;;22.11;32.14;100006.66;4804209;29;45849;-80
2022/04/11 17:52:18;;;;;;;;;4.00;3.00;;;;;22.01;31.98;100011.53;4797171;29;45774;-78
2022/04/11 17:54:43;;;;;;;;;4.75;4.00;;;;;21.88;32.13;100012.25;4791779;29;46647;-84
2022/04/11 17:57:09;;;;;;;;;4.00;3.00;;;;;21.83;32.38;100014.69;4771565;29;48085;-84
2022/04/11 17:59:34;;;;;;;;;4.25;3.25;;;;;21.75;32.80;100012.19;4785157;29;46203;-79
2022/04/11 18:01:59;;;;;;;;;5.00;3.00;;;;;21.60;32.79;100003.44;4787952;29;45857;-84
2022/04/11 18:04:25;;;;;;;;;3.75;3.75;;;;;21.48;33.20;100011.19;4784495;29;47641;-78
2022/04/11 18:06:50;;;;;;;;;5.00;4.25;;;;;21.42;33.46;100017.28;4782538;29;47322;-78
2022/04/11 18:09:15;;;;;;;;;5.75;5.25;;;;;21.32;33.80;100027.47;4781000;29;45826;-79
2022/04/11 18:11:41;;;;;;;;;6.00;5.25;;;;;21.23;33.56;100015.28;4775240;29;45868;-76
2022/04/11 18:14:06;;;;;;;;;6.75;5.75;;;;;21.14;34.20;100014.59;4779198;29;46381;-85
2022/04/11 18:16:32;;;;;;;;;6.75;6.00;;;;;21.03;34.35;100007.09;4782565;29;46980;-79
2022/04/11 18:18:57;;;;;;;;;5.25;5.00;;;;;20.94;34.37;100002.91;4781774;29;46893;-82
2022/04/11 18:21:23;;;;;;;;;4.00;4.00;;;;;20.89;34.71;100008.00;4783810;29;45713;-78
2022/04/11 18:23:48;;;;;;;;;3.50;3.50;;;;;20.88;35.13;100022.31;4781134;29;47294;-78
2022/04/11 18:26:14;;;;;;;;;6.00;4.25;;;;;20.81;35.38;100021.41;4782545;29;47255;-78
2022/04/11 18:31:32;;;;;;;;;4.50;4.25;;;;;20.67;35.67;100022.28;4780065;29;47502;-77
2022/04/11 18:34:04;;;;;;;;;4.00;4.00;;;;;20.46;35.60;99991.13;4779856;29;47200;-78
2022/04/11 18:36:31;;;;;;;;;6.25;6.00;;;;;20.49;36.02;100010.22;4782788;29;46496;-79